Time;durP1;ratioP1;P1;durP2;ratioP2;P2;SDS_P1;SDS_P2;PMS_P1;PMS_P2;Temp;Humidity;BMP_temperature;BMP_pressure;BME280_temperature;BME280_humidity;BME280_pressure;Samples;Min_cycle;Max_cycle;Signal;HPM_P1;HPM_P2
2023/10/06 06:01:06;;;;;;;;;6.33;6.33;;;;;19.98;51.91;102339.06;5070864;27;45453;-74
2023/10/06 06:03:31;;;;;;;;;8.00;5.00;;;;;20.15;51.44;102328.94;5066555;28;45646;-75
2023/10/06 06:05:57;;;;;;;;;4.67;4.33;;;;;20.35;51.67;102338.31;5062854;28;45609;-75
2023/10/06 06:08:23;;;;;;;;;5.00;5.00;;;;;20.59;50.95;102340.25;5061153;28;45490;-74
2023/10/06 06:10:48;;;;;;;;;6.67;6.67;;;;;20.83;50.58;102342.16;5063622;28;45504;-74
2023/10/06 06:13:14;;;;;;;;;8.00;5.00;;;;;21.05;50.45;102341.47;5058938;28;45741;-74
2023/10/06 06:15:40;;;;;;;;;11.33;7.67;;;;;21.25;50.20;102338.28;5061103;27;45672;-77
2023/10/06 06:37:43;;;;;;;;;7.00;6.33;;;;;21.31;49.98;102357.59;5057064;27;45523;-74
2023/10/06 06:40:10;;;;;;;;;5.33;5.00;;;;;21.40;49.75;102365.97;5048696;28;45372;-75
2023/10/06 06:42:38;;;;;;;;;4.33;4.33;;;;;21.48;49.37;102355.44;5047867;28;45703;-77
2023/10/06 06:45:06;;;;;;;;;6.67;6.33;;;;;21.64;49.24;102362.38;5048879;28;45894;-76
2023/10/06 06:47:31;;;;;;;;;7.33;7.00;;;;;21.79;48.59;102358.53;5044281;28;45999;-77
2023/10/06 06:49:59;;;;;;;;;10.33;7.67;;;;;21.94;48.21;102364.63;5043879;28;45723;-78
2023/10/06 06:52:24;;;;;;;;;7.67;7.00;;;;;22.09;48.50;102364.41;5045877;28;45524;-77
2023/10/06 06:54:50;;;;;;;;;7.67;6.33;;;;;22.23;47.69;102360.59;5047284;28;45409;-76
2023/10/06 06:57:18;;;;;;;;;5.00;4.67;;;;;22.40;47.79;102370.09;5043281;28;45750;-78
2023/10/06 06:59:44;;;;;;;;;7.00;5.00;;;;;22.55;47.45;102378.00;5046792;28;45498;-75
2023/10/06 07:02:10;;;;;;;;;5.67;5.33;;;;;22.66;47.36;102375.31;5039611;28;46003;-76
2023/10/06 07:04:35;;;;;;;;;7.00;7.00;;;;;22.76;47.05;102370.88;5037818;28;45894;-77
2023/10/06 07:07:01;;;;;;;;;7.00;7.00;;;;;22.83;46.69;102363.13;5046492;28;56293;-78
2023/10/06 07:09:27;;;;;;;;;6.33;6.00;;;;;23.00;46.11;102367.16;5046599;28;45380;-76
2023/10/06 07:11:54;;;;;;;;;9.33;8.00;;;;;23.09;46.00;102368.25;5048163;28;45383;-79
2023/10/06 07:14:20;;;;;;;;;5.00;5.00;;;;;23.20;45.82;102371.91;5043273;28;45733;-76
2023/10/06 07:16:47;;;;;;;;;8.00;6.33;;;;;23.27;45.59;102371.31;5038276;28;45456;-79
2023/10/06 07:19:14;;;;;;;;;4.67;4.67;;;;;23.35;45.49;102370.69;5046394;28;45488;-76
2023/10/06 07:21:43;;;;;;;;;4.00;4.00;;;;;23.45;45.44;102376.19;5047694;28;45506;-76
2023/10/06 07:24:10;;;;;;;;;5.67;5.67;;;;;23.50;45.05;102371.25;5045956;28;45793;-76
2023/10/06 07:26:40;;;;;;;;;8.00;6.00;;;;;23.56;45.19;102361.75;5034381;28;45614;-76
2023/10/06 07:29:06;;;;;;;;;7.00;7.00;;;;;23.63;44.83;102364.78;5037364;28;45634;-76
2023/10/06 07:31:32;;;;;;;;;3.00;3.00;;;;;23.67;44.46;102363.56;5039193;28;45496;-76
2023/10/06 07:33:57;;;;;;;;;7.00;7.00;;;;;23.72;44.77;102355.88;5039059;28;45492;-82
2023/10/06 07:36:23;;;;;;;;;6.00;4.33;;;;;23.78;44.49;102363.50;5043606;28;46032;-77
2023/10/06 07:38:48;;;;;;;;;6.67;6.00;;;;;23.84;44.04;102364.81;5047880;28;45432;-77
2023/10/06 07:41:23;;;;;;;;;7.33;7.00;;;;;23.89;44.01;102361.69;5039614;28;46147;-80
2023/10/06 07:43:48;;;;;;;;;6.00;6.00;;;;;23.93;43.95;102369.47;5039246;28;45455;-80
2023/10/06 07:46:15;;;;;;;;;4.00;3.00;;;;;23.95;43.90;102372.88;5045173;28;45878;-79
2023/10/06 07:48:41;;;;;;;;;9.00;7.67;;;;;23.98;43.68;102379.06;5032129;28;45477;-80
2023/10/06 07:51:07;;;;;;;;;5.00;5.00;;;;;24.01;43.61;102385.06;5022465;28;45550;-81
2023/10/06 07:53:35;;;;;;;;;11.00;7.00;;;;;23.99;43.66;102370.75;5026205;28;45729;-79
2023/10/06 07:56:06;;;;;;;;;7.33;6.33;;;;;24.05;43.56;102385.66;5026237;28;47118;-80
2023/10/06 07:58:33;;;;;;;;;7.00;7.00;;;;;24.07;43.40;102384.53;5026206;28;45479;-80
2023/10/06 08:01:02;;;;;;;;;7.67;7.00;;;;;24.08;43.39;102390.81;5027377;28;45423;-80
2023/10/06 08:03:27;;;;;;;;;8.00;8.00;;;;;24.09;43.29;102387.16;5027048;28;46231;-79
2023/10/06 08:05:52;;;;;;;;;6.67;6.33;;;;;24.14;43.18;102394.88;5016533;28;46165;-79
2023/10/06 08:08:18;;;;;;;;;9.67;8.67;;;;;24.12;43.13;102389.59;5027814;28;45569;-80
2023/10/06 08:10:43;;;;;;;;;5.67;5.67;;;;;24.15;42.86;102399.31;5027958;28;45516;-79
2023/10/06 08:13:10;;;;;;;;;9.33;9.33;;;;;24.12;42.99;102395.03;5028268;28;46449;-78
2023/10/06 08:15:40;;;;;;;;;8.33;7.00;;;;;24.14;43.04;102403.88;5033312;28;45425;-77
2023/10/06 08:18:06;;;;;;;;;12.00;8.00;;;;;24.15;43.28;102411.03;5031847;28;45717;-79
2023/10/06 08:20:32;;;;;;;;;8.33;6.67;;;;;24.14;42.73;102401.16;5024976;28;45566;-78
2023/10/06 08:22:57;;;;;;;;;9.67;9.67;;;;;24.17;42.54;102414.47;5026432;28;45427;-77
2023/10/06 08:25:24;;;;;;;;;11.33;8.67;;;;;24.17;42.72;102413.59;5030503;28;46320;-78
2023/10/06 08:27:50;;;;;;;;;7.67;7.00;;;;;24.21;42.97;102415.06;5022645;28;45504;-79
2023/10/06 08:30:17;;;;;;;;;8.33;7.67;;;;;24.23;42.60;102417.66;5032293;28;45773;-79
2023/10/06 08:32:46;;;;;;;;;9.33;9.00;;;;;24.25;42.68;102418.34;5029795;28;45587;-76
2023/10/06 08:35:15;;;;;;;;;8.00;8.00;;;;;24.23;42.44;102409.50;5023915;28;46163;-77
2023/10/06 08:37:44;;;;;;;;;9.00;9.00;;;;;24.29;42.89;102417.09;5030978;28;45893;-77
2023/10/06 08:40:17;;;;;;;;;7.00;7.00;;;;;24.33;42.52;102421.28;5029065;28;47008;-77
2023/10/06 08:42:51;;;;;;;;;7.33;6.33;;;;;24.34;42.38;102433.84;5025073;28;45436;-77
2023/10/06 08:45:25;;;;;;;;;8.67;8.67;;;;;24.34;42.51;102429.28;5027910;28;46079;-77
2023/10/06 08:47:53;;;;;;;;;8.33;8.33;;;;;24.34;42.14;102426.56;5018032;28;45516;-76
2023/10/06 08:50:23;;;;;;;;;7.67;7.67;;;;;24.34;42.36;102423.88;5029608;28;45574;-76
2023/10/06 08:52:53;;;;;;;;;8.00;8.00;;;;;24.35;42.40;102422.00;5032299;28;45570;-78
2023/10/06 08:55:19;;;;;;;;;7.00;7.00;;;;;24.34;42.05;102417.56;5046960;28;46281;-76
2023/10/06 08:57:46;;;;;;;;;7.00;6.00;;;;;24.37;42.41;102427.28;5030360;28;45806;-75
2023/10/06 09:00:15;;;;;;;;;7.00;7.00;;;;;24.37;42.11;102420.03;5019479;28;45565;-76
2023/10/06 09:02:41;;;;;;;;;10.00;8.00;;;;;24.37;42.13;102419.16;5045301;28;45659;-76
2023/10/06 09:05:10;;;;;;;;;6.67;5.67;;;;;24.39;42.23;102422.59;5029570;28;46432;-77
2023/10/06 09:07:35;;;;;;;;;8.00;8.00;;;;;24.42;41.99;102416.88;5031279;28;45537;-76
2023/10/06 09:10:18;;;;;;;;;6.00;6.00;;;;;24.41;42.39;102416.06;5026860;28;45809;-76
2023/10/06 09:12:43;;;;;;;;;6.67;6.67;;;;;24.42;42.29;102416.88;5019564;28;45507;-79
2023/10/06 09:15:15;;;;;;;;;6.33;6.33;;;;;24.45;42.38;102419.34;5024765;28;46046;-77
2023/10/06 09:17:40;;;;;;;;;7.00;7.00;;;;;24.47;42.28;102418.22;5027252;28;45641;-75
2023/10/06 09:20:07;;;;;;;;;10.33;9.33;;;;;24.50;42.07;102411.66;5023095;28;45998;-77
2023/10/06 09:22:51;;;;;;;;;9.00;8.00;;;;;24.52;42.09;102417.81;5027825;28;45805;-77
2023/10/06 09:25:18;;;;;;;;;7.33;7.33;;;;;24.55;42.02;102419.38;5023980;28;52798;-77
2023/10/06 09:27:44;;;;;;;;;8.00;7.33;;;;;24.57;42.23;102420.97;5025768;28;45471;-77
2023/10/06 09:30:16;;;;;;;;;6.67;6.67;;;;;24.59;42.09;102424.41;5030584;28;45670;-78
2023/10/06 09:32:42;;;;;;;;;10.00;8.67;;;;;24.60;42.30;102409.84;5025430;28;45313;-79
2023/10/06 09:35:27;;;;;;;;;9.00;8.00;;;;;24.65;42.15;102414.00;5030285;28;46347;-75
2023/10/06 09:38:09;;;;;;;;;8.00;8.00;;;;;24.65;41.97;102416.72;5017056;28;45433;-79
2023/10/06 09:40:42;;;;;;;;;12.00;8.33;;;;;24.69;42.09;102418.19;5028324;28;45431;-79
2023/10/06 09:43:11;;;;;;;;;7.00;7.00;;;;;24.70;42.73;102425.31;5030165;28;45758;-77
2023/10/06 09:45:40;;;;;;;;;6.00;6.00;;;;;24.70;42.91;102420.75;5020286;28;46214;-77
2023/10/06 09:48:09;;;;;;;;;10.67;7.67;;;;;24.73;42.25;102417.75;5031643;28;45445;-77
2023/10/06 09:50:37;;;;;;;;;6.67;5.00;;;;;24.70;42.44;102406.31;5026187;28;45810;-77
2023/10/06 09:53:08;;;;;;;;;7.00;6.67;;;;;24.77;42.42;102406.63;5020446;28;45622;-77
2023/10/06 09:55:36;;;;;;;;;9.33;6.67;;;;;24.80;42.03;102409.09;5031513;28;45523;-77
2023/10/06 09:58:05;;;;;;;;;7.67;7.33;;;;;24.77;42.11;102403.91;5031345;28;45543;-77
2023/10/06 10:00:32;;;;;;;;;6.67;6.33;;;;;24.81;42.10;102419.78;5030801;28;45504;-77
2023/10/06 10:03:03;;;;;;;;;8.33;8.33;;;;;24.82;42.22;102407.09;5029067;28;45682;-77
2023/10/06 10:05:29;;;;;;;;;7.00;7.00;;;;;24.83;42.17;102403.41;5017605;28;46051;-77
2023/10/06 10:07:55;;;;;;;;;8.00;8.00;;;;;24.84;41.85;102407.81;5027356;28;45398;-77
2023/10/06 10:10:23;;;;;;;;;7.00;7.00;;;;;24.84;41.98;102403.25;5024295;28;45714;-77
2023/10/06 10:13:11;;;;;;;;;7.33;7.33;;;;;24.86;42.21;102403.97;5030977;28;45475;-77
2023/10/06 10:16:11;;;;;;;;;8.00;6.67;;;;;24.88;42.19;102400.28;5030913;28;46390;-77
2023/10/06 10:18:44;;;;;;;;;6.33;6.33;;;;;24.89;42.03;102399.28;5000431;28;45575;-77
2023/10/06 10:21:12;;;;;;;;;6.00;6.00;;;;;24.88;42.24;102395.69;5007615;28;45677;-78
2023/10/06 10:23:40;;;;;;;;;6.67;5.67;;;;;24.90;42.46;102398.28;5008919;28;45540;-76
2023/10/06 10:26:28;;;;;;;;;10.00;7.00;;;;;24.91;42.34;102402.72;5000276;28;45652;-76
2023/10/06 10:29:17;;;;;;;;;6.00;6.00;;;;;24.91;42.71;102395.44;5000447;28;45563;-74
2023/10/06 10:32:13;;;;;;;;;7.00;7.00;;;;;24.90;42.29;102382.84;4997810;28;46206;-75
2023/10/06 10:35:13;;;;;;;;;8.00;6.00;;;;;24.93;42.40;102385.28;5004381;28;45604;-75
2023/10/06 10:37:55;;;;;;;;;8.00;6.33;;;;;24.96;42.23;102378.69;5008207;28;45716;-77
2023/10/06 10:40:23;;;;;;;;;6.00;5.67;;;;;24.97;42.23;102383.16;4996943;28;45816;-76
2023/10/06 10:42:54;;;;;;;;;5.33;5.33;;;;;24.98;42.21;102374.84;5002201;28;45849;-76
2023/10/06 10:45:47;;;;;;;;;6.00;6.00;;;;;24.98;42.29;102374.00;5000422;28;45490;-76
2023/10/06 10:48:14;;;;;;;;;7.00;5.00;;;;;25.00;42.19;102377.44;4999251;28;45480;-76
2023/10/06 10:50:59;;;;;;;;;7.00;5.33;;;;;25.02;42.53;102374.59;5006512;28;45584;-76
2023/10/06 10:53:30;;;;;;;;;6.00;5.00;;;;;25.03;42.32;102370.84;5004956;28;45592;-77
2023/10/06 10:55:56;;;;;;;;;5.00;5.00;;;;;25.01;42.67;102368.28;5014283;28;45554;-76
2023/10/06 10:58:49;;;;;;;;;7.33;7.33;;;;;25.03;42.59;102366.31;5020858;28;45455;-76
2023/10/06 11:01:29;;;;;;;;;8.33;7.00;;;;;25.05;42.74;102366.16;5025523;28;45433;-76
2023/10/06 11:04:12;;;;;;;;;7.00;5.33;;;;;25.05;42.73;102360.72;5020623;28;46779;-75
2023/10/06 11:06:39;;;;;;;;;6.67;5.33;;;;;25.05;42.92;102348.00;5025638;28;45833;-75
2023/10/06 11:09:12;;;;;;;;;6.33;6.33;;;;;25.09;42.92;102354.03;5012992;28;45759;-75
2023/10/06 11:11:39;;;;;;;;;5.00;5.00;;;;;25.09;43.19;102348.59;5022531;28;45442;-75
2023/10/06 11:14:05;;;;;;;;;7.00;5.67;;;;;25.10;42.55;102347.59;5026966;28;45616;-72
2023/10/06 11:16:32;;;;;;;;;6.33;6.33;;;;;25.13;42.54;102350.00;5027638;28;45516;-74
2023/10/06 11:18:57;;;;;;;;;7.00;7.00;;;;;25.13;42.26;102352.72;5030550;28;45447;-74
2023/10/06 11:21:26;;;;;;;;;6.33;4.33;;;;;25.18;42.53;102349.59;5028854;28;45464;-74
2023/10/06 11:23:51;;;;;;;;;7.00;6.00;;;;;25.19;42.12;102344.03;5024735;28;46046;-77
2023/10/06 11:26:30;;;;;;;;;8.33;6.00;;;;;25.21;42.20;102341.13;5024773;28;45662;-76
2023/10/06 11:28:56;;;;;;;;;7.00;5.00;;;;;25.18;41.93;102339.56;5031824;28;45575;-76
2023/10/06 11:31:23;;;;;;;;;6.00;6.00;;;;;25.24;42.06;102349.03;5032826;28;45499;-76
2023/10/06 11:33:49;;;;;;;;;6.00;6.00;;;;;25.21;42.14;102336.56;5032248;28;45660;-76
2023/10/06 11:36:16;;;;;;;;;7.00;6.00;;;;;25.24;41.91;102341.75;5034240;28;45400;-76
2023/10/06 11:38:42;;;;;;;;;6.00;5.00;;;;;25.26;42.14;102336.16;5034203;28;46035;-77
2023/10/06 11:41:07;;;;;;;;;5.67;5.00;;;;;25.26;42.10;102330.72;5032310;28;45471;-77
2023/10/06 11:43:33;;;;;;;;;6.33;5.00;;;;;25.28;42.01;102331.44;5034121;28;45659;-77
2023/10/06 11:46:02;;;;;;;;;6.33;6.00;;;;;25.29;42.18;102324.16;5033261;28;45868;-77
2023/10/06 11:48:29;;;;;;;;;6.67;6.00;;;;;25.29;42.32;102324.16;5023076;28;46136;-80
2023/10/06 11:51:06;;;;;;;;;8.33;6.33;;;;;25.24;42.42;102300.13;5033387;28;45388;-80
2023/10/06 11:53:32;;;;;;;;;5.00;5.00;;;;;25.30;42.15;102309.56;5027435;28;45444;-79
2023/10/06 11:56:24;;;;;;;;;6.33;5.00;;;;;25.29;42.36;102310.56;5033599;28;45588;-78
2023/10/06 11:58:49;;;;;;;;;6.67;5.00;;;;;25.28;41.93;102304.25;5032417;28;45302;-77
2023/10/06 12:01:33;;;;;;;;;6.33;5.33;;;;;25.31;42.07;102308.56;5023653;28;45368;-78
2023/10/06 12:04:04;;;;;;;;;6.67;5.67;;;;;25.31;41.93;102306.72;5026501;28;45429;-78
2023/10/06 12:06:37;;;;;;;;;7.33;6.67;;;;;25.31;42.13;102297.69;5025292;28;45763;-76
2023/10/06 12:09:03;;;;;;;;;6.67;5.67;;;;;25.31;42.15;102287.69;5030859;28;45632;-77
2023/10/06 12:11:28;;;;;;;;;3.33;3.33;;;;;25.38;42.28;102286.09;5032670;28;45439;-75
2023/10/06 12:13:53;;;;;;;;;8.33;5.00;;;;;25.41;42.05;102290.38;5027488;28;45450;-75
2023/10/06 12:16:19;;;;;;;;;6.00;5.00;;;;;25.44;42.39;102284.66;5025373;28;48787;-78
2023/10/06 12:18:44;;;;;;;;;7.00;6.00;;;;;25.46;42.00;102285.38;5022739;28;46524;-79
2023/10/06 12:21:14;;;;;;;;;6.33;5.67;;;;;25.50;42.21;102280.53;5032420;28;45540;-78
2023/10/06 12:23:40;;;;;;;;;6.67;6.67;;;;;25.51;41.77;102284.94;5018414;28;45654;-79
2023/10/06 12:26:06;;;;;;;;;5.67;5.00;;;;;25.52;42.12;102281.22;5021651;28;45640;-82
2023/10/06 12:28:32;;;;;;;;;7.33;6.33;;;;;25.56;42.10;102279.97;5019828;28;45466;-78
2023/10/06 12:30:57;;;;;;;;;5.00;5.00;;;;;25.55;42.22;102275.53;5032736;28;45781;-80
2023/10/06 12:33:22;;;;;;;;;6.00;5.00;;;;;25.56;41.73;102276.38;5025990;28;46186;-79
2023/10/06 12:35:52;;;;;;;;;5.00;5.00;;;;;25.61;41.74;102272.22;5026293;28;45752;-74
2023/10/06 12:38:18;;;;;;;;;8.00;6.33;;;;;25.62;41.63;102263.06;5025199;28;46297;-77
2023/10/06 12:40:46;;;;;;;;;5.00;5.00;;;;;25.63;41.73;102266.66;5026128;28;45806;-74
2023/10/06 12:43:12;;;;;;;;;7.00;5.33;;;;;25.64;41.52;102279.25;5030358;28;45752;-75
2023/10/06 12:45:38;;;;;;;;;5.00;5.00;;;;;25.65;41.90;102270.06;5033363;28;45690;-76
2023/10/06 12:48:04;;;;;;;;;5.67;4.67;;;;;25.64;41.77;102260.19;5022767;28;46106;-77
2023/10/06 12:50:30;;;;;;;;;6.67;6.67;;;;;25.62;41.38;102254.03;5032889;28;45521;-76
2023/10/06 12:52:56;;;;;;;;;4.00;4.00;;;;;25.65;41.77;102256.47;5027181;28;45699;-76
2023/10/06 12:55:24;;;;;;;;;3.00;3.00;;;;;25.67;42.01;102257.22;5031052;28;45438;-75
2023/10/06 12:57:50;;;;;;;;;10.33;8.00;;;;;25.68;41.89;102255.31;5021743;28;45388;-75
2023/10/06 13:00:16;;;;;;;;;5.00;5.00;;;;;25.69;41.54;102259.75;5029910;28;45567;-77
2023/10/06 13:02:42;;;;;;;;;4.00;4.00;;;;;25.70;41.86;102256.06;5032320;28;45479;-77
2023/10/06 13:05:16;;;;;;;;;4.00;4.00;;;;;25.73;41.35;102256.59;5027312;28;45992;-76
2023/10/06 13:07:46;;;;;;;;;6.67;5.33;;;;;25.74;41.84;102252.00;5024701;28;45909;-75
2023/10/06 13:10:13;;;;;;;;;3.33;3.00;;;;;25.75;41.41;102251.88;5031317;28;45465;-75
2023/10/06 13:12:39;;;;;;;;;6.00;6.00;;;;;25.74;41.30;102250.16;5030373;28;45736;-75
2023/10/06 13:15:19;;;;;;;;;6.00;5.67;;;;;25.76;41.27;102253.56;5027222;28;45745;-75
2023/10/06 13:17:46;;;;;;;;;5.33;4.00;;;;;25.76;41.62;102239.13;5017353;28;45424;-76
2023/10/06 13:20:16;;;;;;;;;9.00;7.00;;;;;25.76;41.45;102245.41;5022169;28;45534;-75
2023/10/06 13:22:43;;;;;;;;;6.33;5.00;;;;;25.77;41.81;102235.41;5032728;28;45359;-75
2023/10/06 13:25:10;;;;;;;;;6.33;6.33;;;;;25.77;41.68;102235.41;5028627;28;45702;-74
2023/10/06 13:27:37;;;;;;;;;6.00;5.00;;;;;25.77;41.88;102233.56;5020174;28;46107;-75
2023/10/06 13:30:13;;;;;;;;;5.00;5.00;;;;;25.79;41.46;102236.97;5024443;28;45691;-77
2023/10/06 13:32:38;;;;;;;;;7.00;6.00;;;;;25.79;41.68;102239.69;5026411;28;45656;-75
2023/10/06 13:35:05;;;;;;;;;8.00;6.00;;;;;25.79;41.55;102230.69;5029083;28;45446;-76
2023/10/06 13:37:32;;;;;;;;;6.00;6.00;;;;;25.79;41.65;102231.53;5031884;28;45967;-75
2023/10/06 13:39:57;;;;;;;;;9.00;6.00;;;;;25.80;41.23;102235.13;5029242;28;45582;-76
2023/10/06 13:42:23;;;;;;;;;5.33;4.00;;;;;25.81;41.16;102235.97;5032077;28;46500;-75
2023/10/06 13:44:50;;;;;;;;;4.67;4.67;;;;;25.81;41.00;102235.97;5026834;28;45439;-77
2023/10/06 13:47:17;;;;;;;;;4.33;4.00;;;;;25.78;41.25;102227.09;5026397;28;46408;-78
2023/10/06 13:49:43;;;;;;;;;4.33;4.00;;;;;25.81;41.16;102236.84;5031624;28;45418;-78
2023/10/06 13:52:10;;;;;;;;;6.00;6.00;;;;;25.80;41.33;102226.97;5031560;28;45384;-75
2023/10/06 13:54:36;;;;;;;;;2.00;2.00;;;;;25.79;41.25;102226.09;5028261;28;45815;-75
2023/10/06 13:57:03;;;;;;;;;4.67;4.67;;;;;25.78;41.26;102220.81;5021441;28;45510;-75
2023/10/06 13:59:32;;;;;;;;;4.33;4.33;;;;;25.75;41.53;102215.69;5022813;28;45558;-75
2023/10/06 14:01:57;;;;;;;;;6.67;6.00;;;;;25.77;41.61;102221.81;5026593;28;45683;-75
2023/10/06 14:04:23;;;;;;;;;3.33;3.33;;;;;25.75;41.26;102219.22;5029234;28;47107;-75
2023/10/06 14:06:49;;;;;;;;;6.67;4.00;;;;;25.75;41.45;102213.78;5033457;28;46089;-74
2023/10/06 14:09:23;;;;;;;;;6.00;4.00;;;;;25.75;41.38;102215.69;5028077;28;45376;-75
2023/10/06 14:11:50;;;;;;;;;4.33;2.67;;;;;25.74;41.54;102217.53;5023037;28;45600;-75
2023/10/06 14:17:02;;;;;;;;;5.67;5.00;;;;;25.72;41.25;102214.13;5029135;28;45687;-77
2023/10/06 14:19:27;;;;;;;;;5.00;3.00;;;;;25.73;41.08;102215.81;5029145;28;45407;-75
2023/10/06 14:21:53;;;;;;;;;5.33;5.33;;;;;25.72;41.04;102211.41;5029368;28;45384;-77
2023/10/06 14:24:19;;;;;;;;;4.33;4.33;;;;;25.71;41.58;102209.66;5023079;28;45467;-75
2023/10/06 14:26:44;;;;;;;;;5.00;5.00;;;;;25.72;41.06;102211.41;5019613;28;46403;-75
2023/10/06 14:29:09;;;;;;;;;3.67;3.67;;;;;25.73;41.51;102206.78;5030409;28;45490;-75
2023/10/06 14:31:37;;;;;;;;;3.00;3.00;;;;;25.73;41.25;102201.34;5030875;28;52125;-74
2023/10/06 14:36:47;;;;;;;;;7.00;3.33;;;;;25.71;41.62;102190.63;5027723;28;45923;-75
2023/10/06 14:47:07;;;;;;;;;27.33;20.67;;;;;25.70;41.34;102188.06;5018588;28;46059;-75
2023/10/06 14:49:33;;;;;;;;;9.67;7.67;;;;;25.71;41.37;102195.22;5027995;28;45763;-77
2023/10/06 14:51:58;;;;;;;;;9.67;5.33;;;;;25.69;41.51;102189.94;5022534;28;45768;-75
2023/10/06 14:54:31;;;;;;;;;6.67;6.67;;;;;25.64;40.84;102187.66;5025594;28;45643;-76
2023/10/06 14:57:01;;;;;;;;;8.00;8.00;;;;;25.64;41.26;102186.78;5025155;28;46972;-76
2023/10/06 14:59:33;;;;;;;;;11.00;6.67;;;;;25.60;41.28;102191.69;5030680;28;45432;-74
2023/10/06 15:02:06;;;;;;;;;9.00;8.00;;;;;25.53;41.24;102171.47;5030745;28;45662;-76
2023/10/06 15:04:31;;;;;;;;;8.00;8.00;;;;;25.55;40.94;102180.41;5029727;28;45653;-77
2023/10/06 15:06:57;;;;;;;;;7.67;7.00;;;;;25.57;41.61;102182.94;5033521;28;46431;-77
2023/10/06 15:09:22;;;;;;;;;7.33;7.33;;;;;25.51;41.27;102166.19;5034133;28;45439;-74
2023/10/06 15:11:50;;;;;;;;;9.00;5.67;;;;;25.53;41.52;102172.34;5033842;28;51058;-78
2023/10/06 15:14:15;;;;;;;;;11.67;8.33;;;;;25.55;41.47;102174.06;5032553;28;45387;-78
2023/10/06 15:16:42;;;;;;;;;7.33;7.33;;;;;25.54;41.76;102178.63;5029230;28;46206;-78
2023/10/06 15:19:08;;;;;;;;;9.33;6.00;;;;;25.55;41.44;102174.97;5032189;28;45927;-76
2023/10/06 15:21:41;;;;;;;;;6.67;6.00;;;;;25.54;41.45;102181.34;5033963;28;45789;-75
2023/10/06 15:24:10;;;;;;;;;5.67;5.67;;;;;25.55;41.60;102182.22;5033795;28;45413;-78
2023/10/06 15:26:44;;;;;;;;;7.33;7.33;;;;;25.55;41.47;102177.69;5022142;28;45947;-77
2023/10/06 15:29:14;;;;;;;;;6.00;5.00;;;;;25.55;41.75;102174.97;5028645;28;45973;-75
2023/10/06 15:31:40;;;;;;;;;5.33;5.33;;;;;25.54;41.61;102178.63;5030177;28;45476;-75
2023/10/06 15:34:07;;;;;;;;;8.00;7.00;;;;;25.53;41.50;102180.50;5016749;28;45432;-73
2023/10/06 15:36:35;;;;;;;;;7.00;7.00;;;;;25.55;41.50;102179.50;5031533;28;45610;-76
2023/10/06 15:39:08;;;;;;;;;9.00;6.00;;;;;25.53;41.59;102171.47;5022830;28;45369;-76
2023/10/06 15:41:37;;;;;;;;;6.33;6.33;;;;;25.51;41.52;102177.06;5025870;28;45570;-74
2023/10/06 15:44:02;;;;;;;;;6.00;4.67;;;;;25.57;41.06;102180.22;5022019;28;45733;-74
2023/10/06 15:46:27;;;;;;;;;3.00;3.00;;;;;25.57;41.82;102177.50;5029927;28;45351;-74
2023/10/06 15:48:56;;;;;;;;;4.33;2.67;;;;;25.50;41.83;102167.19;5027249;28;53993;-74
2023/10/06 15:51:21;;;;;;;;;4.67;4.67;;;;;25.54;41.67;102173.19;5034625;28;45432;-74
2023/10/06 15:53:47;;;;;;;;;7.00;7.00;;;;;25.55;41.66;102168.63;5032504;28;45533;-74
2023/10/06 15:56:13;;;;;;;;;10.00;5.00;;;;;25.54;41.47;102170.47;5026306;28;45562;-75
2023/10/06 15:58:40;;;;;;;;;7.67;5.67;;;;;25.53;41.61;102171.47;5033812;28;45644;-74
2023/10/06 16:01:11;;;;;;;;;6.33;6.33;;;;;25.48;41.44;102163.78;5033111;28;45412;-74
2023/10/06 16:03:40;;;;;;;;;7.00;5.00;;;;;25.51;41.02;102177.06;5034108;28;45529;-74
2023/10/06 16:06:08;;;;;;;;;8.00;6.33;;;;;25.51;40.99;102174.34;5033567;28;46288;-75
2023/10/06 16:08:34;;;;;;;;;8.00;6.00;;;;;25.50;41.41;102171.78;5027663;28;45958;-74
2023/10/06 16:11:01;;;;;;;;;5.67;5.00;;;;;25.45;41.55;102166.78;5030511;28;45399;-74
2023/10/06 16:13:26;;;;;;;;;5.00;5.00;;;;;25.49;40.89;102170.06;5033474;28;45490;-74
2023/10/06 16:15:52;;;;;;;;;6.00;6.00;;;;;25.47;41.23;102170.19;5032803;28;45843;-73
2023/10/06 16:18:17;;;;;;;;;4.67;4.67;;;;;25.46;41.17;102167.66;5031681;28;45615;-75
2023/10/06 16:20:42;;;;;;;;;7.67;6.33;;;;;25.44;41.34;102170.50;5027097;28;45756;-74
2023/10/06 16:23:08;;;;;;;;;4.00;4.00;;;;;25.44;41.20;102175.94;5027419;28;45404;-74
2023/10/06 16:25:40;;;;;;;;;6.00;6.00;;;;;25.37;41.39;102166.66;5021883;28;45439;-79
2023/10/06 16:28:08;;;;;;;;;6.67;4.00;;;;;25.43;41.57;102178.81;5023803;28;45579;-79
2023/10/06 16:30:35;;;;;;;;;6.00;5.67;;;;;25.43;41.00;102174.25;5030117;28;45423;-74
2023/10/06 16:33:01;;;;;;;;;5.67;5.67;;;;;25.42;40.73;102174.38;5025337;28;45487;-73
2023/10/06 16:35:26;;;;;;;;;5.67;4.67;;;;;25.42;41.54;102174.38;5016491;28;45666;-76
2023/10/06 16:37:53;;;;;;;;;10.00;7.00;;;;;25.41;40.84;102181.66;5031008;28;45427;-75
2023/10/06 16:40:18;;;;;;;;;6.00;4.33;;;;;25.41;41.41;102172.69;5025750;28;46196;-74
2023/10/06 16:42:44;;;;;;;;;5.67;5.00;;;;;25.41;41.29;102172.69;5029929;28;45470;-75
2023/10/06 16:45:10;;;;;;;;;7.33;6.00;;;;;25.39;41.29;102184.53;5027488;28;45647;-74
